Time;durP1;ratioP1;P1;durP2;ratioP2;P2;SDS_P1;SDS_P2;PMS_P1;PMS_P2;Temp;Humidity;BMP_temperature;BMP_pressure;BME280_temperature;BME280_humidity;BME280_pressure;Samples;Min_cycle;Max_cycle;Signal;HPM_P1;HPM_P2
2023/03/23 00:01:12;;;;;;;;;;;12.40;99.90;;;;;;5031939;28;19936;-89
2023/03/23 00:03:39;;;;;;;;;;;12.40;99.90;;;;;;5018812;28;19917;-89
2023/03/23 00:06:05;;;;;;;;;;;12.50;99.90;;;;;;5018354;28;19913;-90
2023/03/23 00:08:33;;;;;;;;;;;12.50;99.90;;;;;;5018687;28;19983;-89
2023/03/23 00:11:00;;;;;;;;;;;12.50;99.90;;;;;;5020594;28;19909;-90
2023/03/23 00:13:27;;;;;;;;;;;12.50;99.90;;;;;;5020829;28;20007;-89
2023/03/23 00:15:53;;;;;;;;;;;12.50;99.90;;;;;;5024839;28;20362;-92
2023/03/23 00:18:22;;;;;;;;;;;12.50;99.90;;;;;;5020935;28;20004;-93
2023/03/23 00:20:49;;;;;;;;;;;12.50;99.90;;;;;;5005410;28;19990;-93
2023/03/23 00:23:18;;;;;;;;;;;12.50;99.90;;;;;;5027283;28;19909;-92
2023/03/23 00:25:47;;;;;;;;;;;12.60;99.90;;;;;;5012700;28;19913;-91
2023/03/23 00:28:14;;;;;;;;;;;12.60;99.90;;;;;;5028344;28;19909;-91
2023/03/23 00:30:41;;;;;;;;;;;12.60;99.90;;;;;;5027537;28;19909;-91
2023/03/23 00:33:07;;;;;;;;;;;12.60;99.90;;;;;;5024641;28;19917;-88
2023/03/23 00:35:35;;;;;;;;;;;12.60;99.90;;;;;;5020032;28;19963;-88
2023/03/23 00:38:01;;;;;;;;;;;12.60;99.90;;;;;;5019900;28;20376;-88
2023/03/23 00:40:27;;;;;;;;;;;12.60;99.90;;;;;;5035741;28;19909;-88
2023/03/23 00:42:53;;;;;;;;;;;12.60;99.90;;;;;;5020967;28;19915;-88
2023/03/23 00:45:19;;;;;;;;;;;12.60;99.90;;;;;;5023977;28;19913;-88
2023/03/23 00:47:46;;;;;;;;;;;12.60;99.90;;;;;;5020331;28;20258;-88
2023/03/23 00:50:12;;;;;;;;;;;12.60;99.90;;;;;;5003891;28;19917;-92
2023/03/23 00:52:38;;;;;;;;;;;12.60;99.90;;;;;;5020546;28;19920;-92
2023/03/23 00:55:04;;;;;;;;;;;12.60;99.90;;;;;;5005198;28;19914;-92
2023/03/23 00:57:29;;;;;;;;;;;12.60;99.90;;;;;;5005035;28;19914;-92
2023/03/23 00:59:55;;;;;;;;;;;12.60;99.90;;;;;;5005657;28;19917;-94
2023/03/23 01:02:24;;;;;;;;;;;12.60;99.90;;;;;;5004278;28;20000;-93
2023/03/23 01:04:52;;;;;;;;;;;12.60;99.90;;;;;;5004242;28;19921;-93
2023/03/23 01:07:20;;;;;;;;;;;12.60;99.90;;;;;;5023550;28;19921;-92
2023/03/23 01:09:47;;;;;;;;;;;12.70;99.90;;;;;;4995276;28;19914;-93
2023/03/23 01:12:14;;;;;;;;;;;12.70;99.90;;;;;;4997682;28;20001;-93
2023/03/23 01:14:40;;;;;;;;;;;12.70;99.90;;;;;;5000707;28;19910;-93
2023/03/23 01:17:06;;;;;;;;;;;12.60;99.90;;;;;;4981563;28;19976;-92
2023/03/23 01:19:31;;;;;;;;;;;12.50;99.90;;;;;;5005117;28;19914;-91
2023/03/23 01:21:57;;;;;;;;;;;12.50;99.90;;;;;;5033900;28;19909;-87
2023/03/23 01:24:22;;;;;;;;;;;12.50;99.90;;;;;;4999253;28;20270;-88
2023/03/23 01:26:48;;;;;;;;;;;12.50;99.90;;;;;;5024898;28;19914;-87
2023/03/23 01:29:14;;;;;;;;;;;12.50;99.90;;;;;;5019146;28;19914;-87
2023/03/23 01:31:40;;;;;;;;;;;12.50;99.90;;;;;;4987144;28;19914;-87
2023/03/23 01:34:05;;;;;;;;;;;12.50;99.90;;;;;;4997485;28;20371;-87
2023/03/23 01:36:32;;;;;;;;;;;12.50;99.90;;;;;;4999287;28;20274;-89
2023/03/23 01:39:03;;;;;;;;;;;12.50;99.90;;;;;;5009055;28;19983;-89
2023/03/23 01:41:28;;;;;;;;;;;12.50;99.90;;;;;;5036617;28;19909;-87
2023/03/23 01:44:03;;;;;;;;;;;12.50;99.90;;;;;;5035080;28;19914;-88
2023/03/23 01:46:33;;;;;;;;;;;12.50;99.90;;;;;;5029970;28;19914;-87
2023/03/23 01:49:26;;;;;;;;;;;12.50;99.90;;;;;;5016172;28;19910;-88
2023/03/23 01:51:53;;;;;;;;;;;12.50;99.90;;;;;;5012147;28;20351;-87
2023/03/23 01:54:20;;;;;;;;;;;12.60;99.90;;;;;;5034931;28;19909;-87
2023/03/23 01:57:06;;;;;;;;;;;12.60;99.90;;;;;;5039783;28;19932;-93
2023/03/23 01:59:33;;;;;;;;;;;12.60;99.90;;;;;;5041881;28;19913;-94
2023/03/23 02:02:00;;;;;;;;;;;12.60;99.90;;;;;;5041949;28;20281;-94
2023/03/23 02:04:27;;;;;;;;;;;12.60;99.90;;;;;;5014035;28;19910;-88
2023/03/23 02:06:53;;;;;;;;;;;12.70;99.90;;;;;;5020470;28;20393;-88
2023/03/23 02:09:19;;;;;;;;;;;12.70;99.90;;;;;;5006335;28;19917;-88
2023/03/23 02:11:45;;;;;;;;;;;12.70;99.90;;;;;;5030561;28;19917;-88
2023/03/23 02:14:11;;;;;;;;;;;12.60;99.90;;;;;;5011830;28;19914;-87
2023/03/23 02:17:03;;;;;;;;;;;12.70;99.90;;;;;;4999592;28;20470;-86
2023/03/23 02:19:28;;;;;;;;;;;12.70;99.90;;;;;;4992592;28;20347;-87
2023/03/23 02:21:54;;;;;;;;;;;12.70;99.90;;;;;;5026366;28;19917;-87
2023/03/23 02:24:34;;;;;;;;;;;12.70;99.90;;;;;;5001301;28;20006;-87
2023/03/23 02:27:02;;;;;;;;;;;12.70;99.90;;;;;;5006050;28;19917;-88
2023/03/23 02:29:33;;;;;;;;;;;12.70;99.90;;;;;;5020922;28;19934;-91
2023/03/23 02:32:17;;;;;;;;;;;12.70;99.90;;;;;;5002423;28;19914;-91
2023/03/23 02:34:52;;;;;;;;;;;12.80;99.90;;;;;;4995875;28;20064;-92
2023/03/23 02:37:20;;;;;;;;;;;12.80;99.90;;;;;;5001976;28;20001;-92
2023/03/23 02:39:51;;;;;;;;;;;12.80;99.90;;;;;;5000835;28;19910;-91
2023/03/23 02:42:20;;;;;;;;;;;12.80;99.90;;;;;;5039625;28;19916;-91
2023/03/23 02:44:47;;;;;;;;;;;12.80;99.90;;;;;;5039130;28;19909;-92
2023/03/23 02:47:17;;;;;;;;;;;12.80;99.90;;;;;;5037570;28;19913;-87
2023/03/23 02:49:45;;;;;;;;;;;12.80;99.90;;;;;;5028218;28;19952;-94
2023/03/23 02:52:14;;;;;;;;;;;12.90;99.90;;;;;;5034610;28;19913;-93
2023/03/23 02:54:42;;;;;;;;;;;12.90;99.90;;;;;;5023621;28;19927;-93
2023/03/23 02:57:08;;;;;;;;;;;12.90;99.90;;;;;;5015792;28;19909;-94
2023/03/23 02:59:34;;;;;;;;;;;12.90;99.90;;;;;;5016624;28;19910;-94
2023/03/23 03:02:07;;;;;;;;;;;12.90;99.90;;;;;;4998733;28;19913;-88
2023/03/23 03:04:34;;;;;;;;;;;12.90;99.90;;;;;;5014637;28;19937;-88
2023/03/23 03:07:18;;;;;;;;;;;12.90;99.90;;;;;;5000855;28;19997;-89
2023/03/23 03:09:44;;;;;;;;;;;12.90;99.90;;;;;;5019692;28;19909;-89
2023/03/23 03:12:17;;;;;;;;;;;13.00;99.90;;;;;;5001995;28;20289;-88
2023/03/23 03:14:53;;;;;;;;;;;13.00;99.90;;;;;;5011429;28;19910;-89
2023/03/23 03:17:24;;;;;;;;;;;13.00;99.90;;;;;;4998360;28;19909;-89
2023/03/23 03:19:53;;;;;;;;;;;13.00;99.90;;;;;;5013082;28;20358;-87
2023/03/23 03:22:20;;;;;;;;;;;13.00;99.90;;;;;;5000642;28;19963;-87
2023/03/23 03:24:47;;;;;;;;;;;13.00;99.90;;;;;;5017972;28;19909;-91
2023/03/23 03:27:14;;;;;;;;;;;13.00;99.90;;;;;;5018459;28;19919;-92
2023/03/23 03:29:43;;;;;;;;;;;13.10;99.90;;;;;;5005502;28;19910;-91
2023/03/23 03:32:12;;;;;;;;;;;13.10;99.90;;;;;;4998117;28;19963;-91
2023/03/23 03:34:38;;;;;;;;;;;13.10;99.90;;;;;;4998357;28;19909;-93
2023/03/23 03:37:05;;;;;;;;;;;13.10;99.90;;;;;;4999767;28;19964;-92
2023/03/23 03:39:34;;;;;;;;;;;13.00;99.90;;;;;;4995259;28;19982;-94
2023/03/23 03:41:59;;;;;;;;;;;13.10;99.90;;;;;;4998830;28;19910;-93
2023/03/23 03:44:25;;;;;;;;;;;13.10;99.90;;;;;;4999690;28;19909;-87
2023/03/23 03:46:50;;;;;;;;;;;13.10;99.90;;;;;;4988292;28;20289;-88
2023/03/23 03:49:16;;;;;;;;;;;13.10;99.90;;;;;;5016424;28;19913;-88
2023/03/23 03:51:41;;;;;;;;;;;13.10;99.90;;;;;;5000146;28;19917;-88
2023/03/23 03:54:07;;;;;;;;;;;13.10;99.90;;;;;;5000931;28;20338;-93
2023/03/23 03:56:35;;;;;;;;;;;13.10;99.90;;;;;;5008031;28;19913;-93
2023/03/23 03:59:02;;;;;;;;;;;13.20;99.90;;;;;;5002841;28;19963;-95
2023/03/23 04:01:28;;;;;;;;;;;13.20;99.90;;;;;;5022746;28;19909;-94
2023/03/23 04:03:54;;;;;;;;;;;13.20;99.90;;;;;;5002056;28;19944;-94
2023/03/23 04:06:20;;;;;;;;;;;13.20;99.90;;;;;;5018688;28;19909;-94
2023/03/23 04:08:46;;;;;;;;;;;13.20;99.90;;;;;;5017727;28;19925;-93
2023/03/23 04:11:12;;;;;;;;;;;13.20;99.90;;;;;;5017729;28;20352;-93
2023/03/23 04:13:38;;;;;;;;;;;13.20;99.90;;;;;;5019231;28;19963;-93
2023/03/23 04:16:04;;;;;;;;;;;13.20;99.90;;;;;;5006140;28;19913;-93
2023/03/23 04:18:31;;;;;;;;;;;13.20;99.90;;;;;;5017250;28;19972;-88
2023/03/23 04:20:59;;;;;;;;;;;13.20;99.90;;;;;;5020388;28;19909;-88
2023/03/23 04:23:25;;;;;;;;;;;13.30;99.90;;;;;;5037807;28;19963;-88
2023/03/23 04:25:52;;;;;;;;;;;13.20;99.90;;;;;;5020487;28;19915;-94
2023/03/23 04:28:18;;;;;;;;;;;13.20;99.90;;;;;;5021737;28;20012;-93
2023/03/23 04:30:44;;;;;;;;;;;13.20;99.90;;;;;;5021334;28;19944;-94
2023/03/23 04:33:14;;;;;;;;;;;13.30;99.90;;;;;;5007700;28;20024;-92
2023/03/23 04:35:40;;;;;;;;;;;13.30;99.90;;;;;;4985809;28;19914;-91
2023/03/23 04:38:07;;;;;;;;;;;13.30;99.90;;;;;;4985203;28;20000;-91
2023/03/23 04:40:35;;;;;;;;;;;13.30;99.90;;;;;;5001414;28;19917;-90
2023/03/23 04:43:05;;;;;;;;;;;13.30;99.90;;;;;;5000551;28;19916;-86
2023/03/23 04:45:31;;;;;;;;;;;13.30;99.90;;;;;;5000738;28;20366;-86
2023/03/23 04:48:01;;;;;;;;;;;13.30;99.90;;;;;;4985248;28;19921;-88
2023/03/23 04:50:33;;;;;;;;;;;13.30;99.90;;;;;;5020129;28;19913;-92
2023/03/23 04:53:03;;;;;;;;;;;13.30;99.90;;;;;;5007651;28;20262;-93
2023/03/23 04:55:30;;;;;;;;;;;13.30;99.90;;;;;;5023159;28;20371;-93
2023/03/23 04:57:56;;;;;;;;;;;13.30;99.90;;;;;;5004973;28;20250;-93
2023/03/23 05:00:21;;;;;;;;;;;13.30;99.90;;;;;;5003479;28;19921;-87
2023/03/23 05:02:51;;;;;;;;;;;13.30;99.90;;;;;;5003043;28;19917;-87
2023/03/23 05:05:17;;;;;;;;;;;13.30;99.90;;;;;;5019226;28;19909;-87
2023/03/23 05:07:43;;;;;;;;;;;13.30;99.90;;;;;;5020557;28;19925;-87
2023/03/23 05:10:10;;;;;;;;;;;13.30;99.90;;;;;;5029399;28;19917;-87
2023/03/23 05:12:36;;;;;;;;;;;13.30;99.90;;;;;;5008568;28;20286;-88
2023/03/23 05:15:01;;;;;;;;;;;13.30;99.90;;;;;;5009875;28;20016;-87
2023/03/23 05:17:27;;;;;;;;;;;13.30;99.90;;;;;;5022621;28;19917;-89
2023/03/23 05:19:53;;;;;;;;;;;13.40;99.90;;;;;;5002912;28;19914;-88
2023/03/23 05:22:20;;;;;;;;;;;13.40;99.90;;;;;;5009748;28;20824;-88
2023/03/23 05:24:46;;;;;;;;;;;13.40;99.90;;;;;;4996349;28;19916;-88
2023/03/23 05:27:12;;;;;;;;;;;13.40;99.90;;;;;;5004307;28;19917;-89
2023/03/23 05:29:40;;;;;;;;;;;13.30;99.90;;;;;;5035842;28;19916;-89
2023/03/23 05:32:09;;;;;;;;;;;13.40;99.90;;;;;;5018383;28;19921;-89
2023/03/23 05:34:35;;;;;;;;;;;13.40;99.90;;;;;;5035344;28;19999;-89
2023/03/23 05:37:01;;;;;;;;;;;13.40;99.90;;;;;;5014833;28;20403;-88
2023/03/23 05:39:28;;;;;;;;;;;13.40;99.90;;;;;;5025451;28;19909;-89
2023/03/23 05:41:53;;;;;;;;;;;13.40;99.90;;;;;;5003120;28;19910;-88
2023/03/23 05:44:19;;;;;;;;;;;13.40;99.90;;;;;;5026425;28;19917;-89
2023/03/23 05:46:45;;;;;;;;;;;13.30;99.90;;;;;;5013437;28;19924;-89
2023/03/23 05:49:11;;;;;;;;;;;13.30;99.90;;;;;;5013466;28;19917;-92
2023/03/23 05:51:37;;;;;;;;;;;13.30;99.90;;;;;;5039385;28;20412;-92
2023/03/23 05:54:03;;;;;;;;;;;13.30;99.90;;;;;;5022682;28;20266;-92
2023/03/23 05:56:30;;;;;;;;;;;13.30;99.90;;;;;;5022679;28;22222;-93
2023/03/23 05:58:56;;;;;;;;;;;13.40;99.90;;;;;;5038651;28;19908;-93
2023/03/23 06:01:23;;;;;;;;;;;13.40;99.90;;;;;;5023477;28;20359;-92
2023/03/23 06:03:53;;;;;;;;;;;13.40;99.90;;;;;;5037728;28;19963;-92
2023/03/23 06:06:22;;;;;;;;;;;13.30;99.90;;;;;;5017188;28;19913;-89
2023/03/23 06:08:50;;;;;;;;;;;13.30;99.90;;;;;;4989559;28;19937;-90
2023/03/23 06:11:16;;;;;;;;;;;13.30;99.90;;;;;;5001656;28;20363;-91
2023/03/23 06:13:41;;;;;;;;;;;13.30;99.90;;;;;;4999567;28;20404;-93
2023/03/23 06:16:08;;;;;;;;;;;13.30;99.90;;;;;;4983876;28;19917;-91
2023/03/23 06:18:36;;;;;;;;;;;13.30;99.90;;;;;;4999754;28;19909;-90
2023/03/23 06:24:05;;;;;;;;;;;13.30;99.90;;;;;;5002164;28;20000;-91
2023/03/23 06:26:32;;;;;;;;;;;13.30;99.90;;;;;;4991423;28;19917;-92
2023/03/23 06:28:58;;;;;;;;;;;13.30;99.90;;;;;;5001410;28;19956;-91
2023/03/23 06:31:24;;;;;;;;;;;13.40;99.90;;;;;;4983488;28;19918;-91
2023/03/23 06:33:50;;;;;;;;;;;13.40;99.90;;;;;;4982282;28;19918;-92
2023/03/23 06:36:16;;;;;;;;;;;13.30;99.90;;;;;;4982135;28;20364;-91
2023/03/23 06:38:42;;;;;;;;;;;13.30;99.90;;;;;;4982457;28;19921;-92
2023/03/23 06:41:08;;;;;;;;;;;13.40;99.90;;;;;;5001370;28;19909;-92
2023/03/23 06:43:35;;;;;;;;;;;13.40;99.90;;;;;;5000700;28;19948;-91
2023/03/23 06:46:01;;;;;;;;;;;13.40;99.90;;;;;;5015834;28;19909;-90
2023/03/23 06:48:27;;;;;;;;;;;13.40;99.90;;;;;;4981984;28;19914;-89
2023/03/23 06:50:52;;;;;;;;;;;13.40;99.90;;;;;;5015539;28;19914;-88
2023/03/23 06:53:20;;;;;;;;;;;13.40;99.90;;;;;;4999092;28;19917;-94
2023/03/23 06:55:45;;;;;;;;;;;13.40;99.90;;;;;;4998983;28;20004;-94
2023/03/23 06:58:11;;;;;;;;;;;13.40;99.90;;;;;;4998751;28;19956;-94
2023/03/23 07:00:37;;;;;;;;;;;13.40;99.90;;;;;;4998300;28;19960;-94
2023/03/23 07:03:03;;;;;;;;;;;13.40;99.90;;;;;;4999038;28;19924;-94
2023/03/23 07:05:30;;;;;;;;;;;13.40;99.90;;;;;;4998676;28;20318;-94
2023/03/23 07:07:55;;;;;;;;;;;13.40;99.90;;;;;;5004906;28;19921;-95
2023/03/23 07:10:21;;;;;;;;;;;13.40;99.90;;;;;;5031487;28;20020;-94
2023/03/23 07:12:46;;;;;;;;;;;13.30;99.90;;;;;;5014688;28;19926;-91
2023/03/23 07:15:12;;;;;;;;;;;13.30;99.90;;;;;;5014558;28;19918;-91
2023/03/23 07:17:38;;;;;;;;;;;13.30;99.90;;;;;;5014506;28;20305;-93
2023/03/23 07:20:04;;;;;;;;;;;13.40;99.90;;;;;;5015130;28;19913;-95
2023/03/23 07:22:30;;;;;;;;;;;13.40;99.90;;;;;;5014827;28;20416;-94
2023/03/23 07:24:56;;;;;;;;;;;13.40;99.90;;;;;;5014734;28;20016;-94
2023/03/23 07:27:21;;;;;;;;;;;13.30;99.90;;;;;;5014836;28;20588;-95
2023/03/23 07:29:47;;;;;;;;;;;13.30;99.90;;;;;;5014202;28;20307;-88
2023/03/23 07:32:12;;;;;;;;;;;13.30;99.90;;;;;;5014064;28;19936;-88
2023/03/23 07:34:38;;;;;;;;;;;13.30;99.90;;;;;;4997324;28;19913;-88
2023/03/23 07:37:04;;;;;;;;;;;13.30;99.90;;;;;;5013750;28;20266;-88
2023/03/23 07:39:30;;;;;;;;;;;13.30;99.90;;;;;;5013178;28;20008;-88
2023/03/23 07:41:56;;;;;;;;;;;13.30;99.90;;;;;;5002122;28;20063;-87
2023/03/23 07:44:22;;;;;;;;;;;13.20;99.90;;;;;;4996975;28;19965;-88
2023/03/23 07:46:47;;;;;;;;;;;13.20;99.90;;;;;;4997673;28;20326;-92
2023/03/23 07:49:13;;;;;;;;;;;13.20;99.90;;;;;;4998211;28;19921;-92
2023/03/23 07:51:39;;;;;;;;;;;13.20;99.90;;;;;;4997865;28;19921;-92
2023/03/23 07:54:07;;;;;;;;;;;13.20;99.90;;;;;;4997963;28;20009;-92
2023/03/23 07:56:33;;;;;;;;;;;13.20;99.90;;;;;;5018023;28;20362;-92
2023/03/23 07:58:59;;;;;;;;;;;13.10;99.90;;;;;;5018265;28;20477;-92
2023/03/23 08:01:24;;;;;;;;;;;13.10;99.90;;;;;;5017689;28;19945;-89
2023/03/23 08:03:51;;;;;;;;;;;13.10;99.90;;;;;;5001678;28;20275;-90
2023/03/23 08:06:17;;;;;;;;;;;13.00;99.90;;;;;;5018095;28;19910;-89
2023/03/23 08:08:42;;;;;;;;;;;12.90;99.90;;;;;;5001747;28;19928;-90
2023/03/23 08:11:08;;;;;;;;;;;12.90;99.90;;;;;;5018491;28;20318;-90
2023/03/23 08:13:35;;;;;;;;;;;12.90;99.90;;;;;;5001135;28;20429;-90
2023/03/23 08:16:03;;;;;;;;;;;12.90;99.90;;;;;;5017665;28;19940;-90
2023/03/23 08:18:29;;;;;;;;;;;12.90;99.90;;;;;;4984578;28;19921;-94
2023/03/23 08:20:55;;;;;;;;;;;12.80;99.90;;;;;;4983596;28;19921;-94
2023/03/23 08:23:21;;;;;;;;;;;12.80;99.90;;;;;;5011782;28;19909;-88
2023/03/23 08:25:47;;;;;;;;;;;12.80;99.90;;;;;;5016740;28;19909;-88
2023/03/23 08:28:13;;;;;;;;;;;12.90;99.90;;;;;;5015202;28;19918;-89
2023/03/23 08:30:39;;;;;;;;;;;12.90;99.90;;;;;;5016743;28;19913;-88
2023/03/23 08:33:05;;;;;;;;;;;12.80;99.90;;;;;;5018252;28;19924;-88
2023/03/23 08:35:32;;;;;;;;;;;12.80;99.90;;;;;;5020257;28;20274;-93
2023/03/23 08:37:58;;;;;;;;;;;12.80;99.90;;;;;;5002468;28;19917;-92
2023/03/23 08:40:24;;;;;;;;;;;12.80;99.90;;;;;;5021774;28;19910;-93
2023/03/23 08:42:51;;;;;;;;;;;12.90;99.90;;;;;;5004260;28;19929;-93
2023/03/23 08:45:21;;;;;;;;;;;12.90;99.90;;;;;;5020756;28;20358;-93
2023/03/23 08:47:51;;;;;;;;;;;12.90;99.90;;;;;;5019539;28;20325;-93
2023/03/23 08:50:19;;;;;;;;;;;12.90;99.90;;;;;;5019620;28;20359;-93
2023/03/23 08:52:47;;;;;;;;;;;12.90;99.90;;;;;;5017408;28;19913;-91
2023/03/23 08:55:13;;;;;;;;;;;12.80;99.90;;;;;;5018271;28;20334;-94
2023/03/23 08:57:40;;;;;;;;;;;12.90;99.90;;;;;;5020423;28;20358;-93
2023/03/23 09:00:17;;;;;;;;;;;12.90;99.90;;;;;;5002129;28;19913;-94
2023/03/23 09:02:44;;;;;;;;;;;12.90;99.90;;;;;;5023290;28;19937;-94
2023/03/23 09:05:10;;;;;;;;;;;12.90;99.90;;;;;;5020435;28;19913;-93
2023/03/23 09:07:39;;;;;;;;;;;12.80;99.90;;;;;;5027040;28;19917;-94
2023/03/23 09:10:05;;;;;;;;;;;12.80;99.90;;;;;;5032879;28;19920;-89
2023/03/23 09:12:31;;;;;;;;;;;12.80;99.90;;;;;;5018728;28;19967;-90
2023/03/23 09:14:57;;;;;;;;;;;12.80;99.90;;;;;;5033116;28;19937;-89
2023/03/23 09:17:22;;;;;;;;;;;12.80;99.90;;;;;;5017627;28;20345;-89
2023/03/23 09:19:54;;;;;;;;;;;12.80;99.90;;;;;;5030898;28;19909;-93
2023/03/23 09:22:23;;;;;;;;;;;12.80;99.90;;;;;;5020677;28;19917;-91
2023/03/23 09:24:49;;;;;;;;;;;12.80;99.90;;;;;;5013446;28;20328;-92
2023/03/23 09:27:16;;;;;;;;;;;12.80;99.90;;;;;;5058059;28;19934;-89
2023/03/23 09:29:41;;;;;;;;;;;12.80;99.90;;;;;;5032999;28;20323;-90
2023/03/23 09:32:07;;;;;;;;;;;12.90;99.90;;;;;;5023150;28;19921;-89
2023/03/23 09:34:35;;;;;;;;;;;12.90;99.90;;;;;;5021665;28;19912;-91
2023/03/23 09:37:04;;;;;;;;;;;12.90;99.90;;;;;;5004313;28;19913;-92
2023/03/23 09:39:30;;;;;;;;;;;13.00;99.90;;;;;;5004175;28;20374;-91
2023/03/23 09:41:55;;;;;;;;;;;13.00;99.90;;;;;;5022362;28;20008;-95
2023/03/23 09:44:21;;;;;;;;;;;13.00;99.90;;;;;;5028126;28;19935;-90
2023/03/23 09:47:05;;;;;;;;;;;13.10;99.90;;;;;;5039012;28;19910;-89
2023/03/23 09:49:36;;;;;;;;;;;13.10;99.90;;;;;;5020049;28;19909;-90
2023/03/23 09:52:04;;;;;;;;;;;13.20;99.90;;;;;;5019485;28;19925;-89
2023/03/23 09:54:33;;;;;;;;;;;13.30;99.90;;;;;;5052465;28;20378;-89
2023/03/23 09:56:59;;;;;;;;;;;13.40;99.90;;;;;;5019866;28;19910;-91
2023/03/23 09:59:36;;;;;;;;;;;13.50;99.90;;;;;;5020656;28;19913;-88
2023/03/23 10:02:21;;;;;;;;;;;13.60;99.90;;;;;;5036322;28;19916;-88
2023/03/23 10:04:48;;;;;;;;;;;13.70;99.90;;;;;;5020982;28;19909;-95
2023/03/23 10:07:19;;;;;;;;;;;13.80;99.90;;;;;;5020120;28;20003;-94
2023/03/23 10:09:58;;;;;;;;;;;13.90;99.90;;;;;;5019570;28;19917;-94
2023/03/23 10:12:39;;;;;;;;;;;13.90;99.90;;;;;;5019716;28;19917;-94
2023/03/23 10:15:08;;;;;;;;;;;14.00;99.90;;;;;;5020160;28;19915;-94
2023/03/23 10:17:37;;;;;;;;;;;14.10;99.90;;;;;;5036623;28;19966;-93
2023/03/23 10:20:04;;;;;;;;;;;14.10;99.90;;;;;;5042690;28;19909;-94
2023/03/23 10:22:32;;;;;;;;;;;14.30;99.90;;;;;;5032630;28;19913;-94
2023/03/23 10:25:15;;;;;;;;;;;14.30;99.90;;;;;;5030048;28;19945;-93
2023/03/23 10:27:40;;;;;;;;;;;14.40;99.90;;;;;;5037689;28;19909;-95
2023/03/23 10:30:15;;;;;;;;;;;14.50;99.90;;;;;;5026411;28;20273;-95
2023/03/23 10:32:41;;;;;;;;;;;14.60;99.90;;;;;;5021602;28;19917;-95
2023/03/23 10:35:10;;;;;;;;;;;14.60;99.90;;;;;;5029173;28;19981;-92
2023/03/23 10:37:38;;;;;;;;;;;14.60;99.90;;;;;;5029202;28;19960;-93
2023/03/23 10:40:10;;;;;;;;;;;14.70;99.90;;;;;;5024104;23;19925;-87
2023/03/23 10:42:38;;;;;;;;;;;14.80;99.90;;;;;;5013581;28;19968;-92
2023/03/23 10:45:13;;;;;;;;;;;14.80;99.90;;;;;;5000752;28;19914;-92
2023/03/23 10:47:41;;;;;;;;;;;14.90;99.90;;;;;;5000514;28;19920;-91
2023/03/23 10:50:12;;;;;;;;;;;15.00;99.90;;;;;;5000268;28;20366;-91
2023/03/23 10:52:38;;;;;;;;;;;15.00;99.90;;;;;;4998365;28;20015;-94
2023/03/23 10:55:37;;;;;;;;;;;15.20;99.90;;;;;;4998763;28;20396;-89
2023/03/23 10:58:08;;;;;;;;;;;15.10;99.90;;;;;;4997311;28;19932;-88
2023/03/23 11:00:40;;;;;;;;;;;15.10;99.90;;;;;;4978427;28;19980;-91
2023/03/23 11:03:18;;;;;;;;;;;15.10;99.90;;;;;;4977690;28;19910;-90
2023/03/23 11:05:46;;;;;;;;;;;15.20;99.90;;;;;;4977170;28;19910;-91
2023/03/23 11:08:22;;;;;;;;;;;15.20;99.90;;;;;;4994784;28;19914;-88
2023/03/23 11:10:56;;;;;;;;;;;15.20;99.90;;;;;;4996793;28;20358;-89
2023/03/23 11:13:30;;;;;;;;;;;15.20;99.90;;;;;;4997271;28;19918;-95
2023/03/23 11:16:01;;;;;;;;;;;15.20;99.90;;;;;;4999785;28;19922;-94
2023/03/23 11:18:39;;;;;;;;;;;15.30;99.90;;;;;;4997913;28;20294;-93
2023/03/23 11:21:11;;;;;;;;;;;15.40;99.90;;;;;;4978218;28;20017;-89
2023/03/23 11:23:43;;;;;;;;;;;15.60;99.90;;;;;;4977993;28;19918;-86
2023/03/23 11:26:15;;;;;;;;;;;15.70;99.90;;;;;;4978758;28;19910;-89
2023/03/23 11:28:56;;;;;;;;;;;15.80;99.90;;;;;;4995916;28;19950;-91
2023/03/23 11:31:23;;;;;;;;;;;15.90;99.90;;;;;;4996487;28;19960;-87
2023/03/23 11:33:52;;;;;;;;;;;16.00;99.90;;;;;;4997393;28;19922;-95
2023/03/23 11:36:20;;;;;;;;;;;16.00;99.90;;;;;;4999020;28;19937;-94
2023/03/23 11:38:52;;;;;;;;;;;16.00;99.90;;;;;;4998607;28;19933;-93
2023/03/23 11:41:25;;;;;;;;;;;16.00;99.90;;;;;;5001273;28;19910;-93
2023/03/23 11:43:52;;;;;;;;;;;16.00;99.90;;;;;;5028402;28;19992;-92
2023/03/23 11:46:33;;;;;;;;;;;16.00;99.90;;;;;;5010256;28;19921;-90
2023/03/23 11:49:03;;;;;;;;;;;15.90;99.90;;;;;;5001860;28;20000;-89
2023/03/23 11:51:47;;;;;;;;;;;15.90;99.90;;;;;;4999222;28;19914;-90
2023/03/23 11:54:12;;;;;;;;;;;15.90;99.90;;;;;;5001363;28;19967;-92
2023/03/23 11:56:39;;;;;;;;;;;15.90;99.90;;;;;;5001543;28;19913;-91
2023/03/23 11:59:16;;;;;;;;;;;15.80;99.90;;;;;;5016106;28;19980;-90
2023/03/23 12:01:43;;;;;;;;;;;15.80;99.90;;;;;;4998077;28;20020;-93
2023/03/23 12:04:28;;;;;;;;;;;15.80;99.90;;;;;;4999503;28;19952;-89
2023/03/23 12:06:57;;;;;;;;;;;15.80;99.90;;;;;;5020733;28;20272;-91
2023/03/23 12:09:32;;;;;;;;;;;15.60;99.90;;;;;;5000013;28;19932;-89
2023/03/23 12:12:01;;;;;;;;;;;15.50;99.90;;;;;;4999016;28;19949;-90
2023/03/23 12:14:43;;;;;;;;;;;15.40;99.90;;;;;;4999799;28;19910;-89
2023/03/23 12:17:28;;;;;;;;;;;15.30;99.90;;;;;;5016268;28;20388;-93
2023/03/23 12:20:11;;;;;;;;;;;15.20;99.90;;;;;;4997980;28;20288;-90
2023/03/23 12:22:42;;;;;;;;;;;15.10;99.90;;;;;;4998412;28;20350;-92
2023/03/23 12:25:14;;;;;;;;;;;15.10;99.90;;;;;;4997262;28;19913;-94
2023/03/23 12:27:40;;;;;;;;;;;15.10;99.90;;;;;;4992820;28;20373;-92
2023/03/23 12:30:25;;;;;;;;;;;15.10;99.90;;;;;;5015575;28;19909;-95
2023/03/23 12:33:03;;;;;;;;;;;15.10;99.90;;;;;;5018395;28;19967;-93
2023/03/23 12:35:42;;;;;;;;;;;15.20;99.90;;;;;;5035667;28;19919;-91
2023/03/23 12:38:14;;;;;;;;;;;15.30;99.90;;;;;;5018812;28;19960;-90
2023/03/23 12:40:55;;;;;;;;;;;15.30;99.90;;;;;;5008765;28;19925;-91
2023/03/23 12:43:30;;;;;;;;;;;15.30;99.90;;;;;;4981662;28;19941;-93
2023/03/23 12:46:10;;;;;;;;;;;15.30;99.90;;;;;;4990636;28;19910;-88
2023/03/23 12:48:40;;;;;;;;;;;15.20;99.90;;;;;;5008825;28;19918;-88
2023/03/23 12:51:12;;;;;;;;;;;15.20;99.90;;;;;;4997494;28;19966;-89
2023/03/23 12:53:57;;;;;;;;;;;15.20;99.90;;;;;;4998628;28;20004;-90
2023/03/23 12:56:28;;;;;;;;;;;15.20;99.90;;;;;;4997838;28;19964;-89
2023/03/23 12:58:57;;;;;;;;;;;15.10;99.90;;;;;;4997583;28;19916;-92
2023/03/23 13:01:32;;;;;;;;;;;15.10;99.90;;;;;;4997944;28;19916;-89
2023/03/23 13:04:01;;;;;;;;;;;15.20;99.90;;;;;;4997678;28;19910;-89
2023/03/23 13:06:29;;;;;;;;;;;15.20;99.90;;;;;;4996939;28;19909;-87
2023/03/23 13:09:04;;;;;;;;;;;15.30;99.90;;;;;;4997710;28;19963;-89
2023/03/23 13:11:34;;;;;;;;;;;15.10;99.90;;;;;;4998183;28;19910;-88
2023/03/23 13:14:27;;;;;;;;;;;15.00;99.90;;;;;;4997174;28;19948;-88
2023/03/23 13:16:53;;;;;;;;;;;14.90;99.90;;;;;;4996837;28;19909;-87
2023/03/23 13:19:28;;;;;;;;;;;14.80;99.90;;;;;;4996821;28;19945;-88
2023/03/23 13:21:58;;;;;;;;;;;14.60;99.90;;;;;;4996673;28;19917;-89
2023/03/23 13:24:27;;;;;;;;;;;14.60;99.90;;;;;;4998487;28;20338;-88
2023/03/23 13:26:55;;;;;;;;;;;14.50;99.90;;;;;;4997888;28;20007;-89
2023/03/23 13:29:28;;;;;;;;;;;14.50;99.90;;;;;;4996603;28;19988;-87
2023/03/23 13:32:10;;;;;;;;;;;14.40;99.90;;;;;;4981160;28;19941;-86
2023/03/23 13:34:39;;;;;;;;;;;14.40;99.90;;;;;;4996568;28;19932;-88
2023/03/23 13:37:11;;;;;;;;;;;14.40;99.90;;;;;;4997201;28;19945;-92
2023/03/23 13:41:34;;;;;;;;;;;14.50;99.90;;;;;;5049356;27;2025085;-89
2023/03/23 13:44:26;;;;;;;;;;;14.60;99.90;;;;;;5117443;28;19911;-88
2023/03/23 13:47:18;;;;;;;;;;;14.70;99.90;;;;;;5126072;28;19915;-90
2023/03/23 13:53:11;;;;;;;;;;;14.70;99.90;;;;;;5156835;27;19906;-89
2023/03/23 13:55:42;;;;;;;;;;;14.70;99.90;;;;;;5131806;28;19907;-87
2023/03/23 13:58:12;;;;;;;;;;;14.70;99.90;;;;;;5153601;27;19916;-90
2023/03/23 14:03:50;;;;;;;;;;;14.80;99.90;;;;;;5041812;28;19916;-88
2023/03/23 14:06:24;;;;;;;;;;;14.80;99.90;;;;;;5118165;28;19911;-90
2023/03/23 14:08:52;;;;;;;;;;;14.80;99.90;;;;;;5118662;28;20335;-87
2023/03/23 14:11:30;;;;;;;;;;;14.80;99.90;;;;;;5116697;28;19912;-86
2023/03/23 14:14:05;;;;;;;;;;;14.80;99.90;;;;;;5136990;28;19931;-91
2023/03/23 14:19:42;;;;;;;;;;;14.80;99.90;;;;;;5135936;28;19969;-89
2023/03/23 14:25:13;;;;;;;;;;;14.80;99.90;;;;;;5134629;28;19957;-87
2023/03/23 14:30:44;;;;;;;;;;;14.80;99.90;;;;;;5133311;28;19918;-86
2023/03/23 14:36:30;;;;;;;;;;;14.70;99.90;;;;;;5136583;28;19915;-89
2023/03/23 14:39:06;;;;;;;;;;;14.70;99.90;;;;;;5117904;28;19955;-88
2023/03/23 14:41:36;;;;;;;;;;;14.80;99.90;;;;;;5117738;28;20400;-87
2023/03/23 14:44:03;;;;;;;;;;;14.80;99.90;;;;;;5119257;28;20003;-89
2023/03/23 14:46:32;;;;;;;;;;;14.90;99.90;;;;;;5119707;28;19908;-90
2023/03/23 14:49:02;;;;;;;;;;;15.10;99.90;;;;;;5117111;28;19914;-87
2023/03/23 14:51:27;;;;;;;;;;;15.10;99.90;;;;;;5133109;28;19908;-88